sensor_id;sensor_type;location;lat;lon;timestamp;P1;durP1;ratioP1;P2;durP2;ratioP2
1785;SDS011;890;48.158;11.540;2023-06-22T00:00:52;1187.23;;;999.90;;
1785;SDS011;890;48.158;11.540;2023-06-22T00:03:19;1177.13;;;999.90;;
1785;SDS011;890;48.158;11.540;2023-06-22T00:05:46;1176.70;;;999.90;;
1785;SDS011;890;48.158;11.540;2023-06-22T00:08:12;1199.30;;;999.90;;
1785;SDS011;890;48.158;11.540;2023-06-22T00:10:38;1195.10;;;999.90;;
1785;SDS011;890;48.158;11.540;2023-06-22T00:13:04;1163.00;;;999.90;;
1785;SDS011;890;48.158;11.540;2023-06-22T00:15:30;1193.07;;;999.90;;
1785;SDS011;890;48.158;11.540;2023-06-22T00:17:56;1187.23;;;999.90;;
1785;SDS011;890;48.158;11.540;2023-06-22T00:20:22;1201.67;;;999.90;;
1785;SDS011;890;48.158;11.540;2023-06-22T00:22:52;1173.40;;;999.90;;
1785;SDS011;890;48.158;11.540;2023-06-22T00:25:18;1179.40;;;999.90;;
1785;SDS011;890;48.158;11.540;2023-06-22T00:27:44;1162.87;;;999.90;;
1785;SDS011;890;48.158;11.540;2023-06-22T00:30:10;1185.80;;;999.90;;
1785;SDS011;890;48.158;11.540;2023-06-22T00:32:36;1163.77;;;999.90;;
1785;SDS011;890;48.158;11.540;2023-06-22T00:35:01;1175.80;;;999.90;;
1785;SDS011;890;48.158;11.540;2023-06-22T00:37:27;1180.17;;;999.90;;
1785;SDS011;890;48.158;11.540;2023-06-22T00:39:54;1173.93;;;999.90;;
1785;SDS011;890;48.158;11.540;2023-06-22T00:42:20;1159.60;;;999.90;;
1785;SDS011;890;48.158;11.540;2023-06-22T00:44:46;1161.40;;;999.90;;
1785;SDS011;890;48.158;11.540;2023-06-22T00:47:13;1150.50;;;999.90;;
1785;SDS011;890;48.158;11.540;2023-06-22T00:49:40;1143.90;;;999.90;;
1785;SDS011;890;48.158;11.540;2023-06-22T00:52:06;1183.77;;;999.90;;
1785;SDS011;890;48.158;11.540;2023-06-22T00:54:37;1180.07;;;999.90;;
1785;SDS011;890;48.158;11.540;2023-06-22T00:57:03;1173.73;;;999.90;;
1785;SDS011;890;48.158;11.540;2023-06-22T00:59:28;1164.43;;;999.90;;
1785;SDS011;890;48.158;11.540;2023-06-22T01:01:55;1171.30;;;999.90;;
1785;SDS011;890;48.158;11.540;2023-06-22T01:04:24;1154.93;;;999.90;;
1785;SDS011;890;48.158;11.540;2023-06-22T01:07:02;1168.53;;;999.90;;
1785;SDS011;890;48.158;11.540;2023-06-22T01:12:18;1170.87;;;999.90;;
1785;SDS011;890;48.158;11.540;2023-06-22T01:14:53;1143.67;;;999.90;;
1785;SDS011;890;48.158;11.540;2023-06-22T01:17:26;1132.70;;;999.90;;
1785;SDS011;890;48.158;11.540;2023-06-22T01:19:56;1135.80;;;999.90;;
1785;SDS011;890;48.158;11.540;2023-06-22T01:22:26;1133.20;;;999.90;;
1785;SDS011;890;48.158;11.540;2023-06-22T01:25:11;1130.33;;;999.90;;
1785;SDS011;890;48.158;11.540;2023-06-22T01:27:56;1150.13;;;999.90;;
1785;SDS011;890;48.158;11.540;2023-06-22T01:30:30;1127.60;;;999.90;;
1785;SDS011;890;48.158;11.540;2023-06-22T01:33:00;1146.70;;;999.90;;
1785;SDS011;890;48.158;11.540;2023-06-22T01:35:28;1131.03;;;999.90;;
1785;SDS011;890;48.158;11.540;2023-06-22T01:37:54;1127.53;;;999.90;;
1785;SDS011;890;48.158;11.540;2023-06-22T01:40:20;1134.20;;;999.90;;
1785;SDS011;890;48.158;11.540;2023-06-22T01:42:46;1131.03;;;999.90;;
1785;SDS011;890;48.158;11.540;2023-06-22T01:45:13;1141.13;;;999.90;;
1785;SDS011;890;48.158;11.540;2023-06-22T01:47:40;1131.50;;;999.90;;
1785;SDS011;890;48.158;11.540;2023-06-22T01:50:06;1122.67;;;999.90;;
1785;SDS011;890;48.158;11.540;2023-06-22T01:52:33;1128.57;;;999.90;;
1785;SDS011;890;48.158;11.540;2023-06-22T01:54:59;1119.43;;;999.90;;
1785;SDS011;890;48.158;11.540;2023-06-22T01:57:25;1152.67;;;999.90;;
1785;SDS011;890;48.158;11.540;2023-06-22T02:02:27;1146.63;;;999.90;;
1785;SDS011;890;48.158;11.540;2023-06-22T02:05:03;1157.03;;;999.90;;
1785;SDS011;890;48.158;11.540;2023-06-22T02:07:32;1144.80;;;999.90;;
1785;SDS011;890;48.158;11.540;2023-06-22T02:10:02;1143.13;;;999.90;;
1785;SDS011;890;48.158;11.540;2023-06-22T02:12:31;1136.33;;;999.90;;
1785;SDS011;890;48.158;11.540;2023-06-22T02:14:58;1163.07;;;999.90;;
1785;SDS011;890;48.158;11.540;2023-06-22T02:17:25;1145.20;;;999.90;;
1785;SDS011;890;48.158;11.540;2023-06-22T02:19:51;1165.10;;;999.90;;
1785;SDS011;890;48.158;11.540;2023-06-22T02:22:17;1130.97;;;999.90;;
1785;SDS011;890;48.158;11.540;2023-06-22T02:24:43;1140.97;;;999.90;;
1785;SDS011;890;48.158;11.540;2023-06-22T02:27:08;1164.10;;;999.90;;
1785;SDS011;890;48.158;11.540;2023-06-22T02:29:35;1153.07;;;999.90;;
1785;SDS011;890;48.158;11.540;2023-06-22T02:32:01;1157.00;;;999.90;;
1785;SDS011;890;48.158;11.540;2023-06-22T02:34:27;1144.50;;;999.90;;
1785;SDS011;890;48.158;11.540;2023-06-22T02:36:52;1138.63;;;999.90;;
1785;SDS011;890;48.158;11.540;2023-06-22T02:41:48;1127.67;;;999.90;;
1785;SDS011;890;48.158;11.540;2023-06-22T02:44:18;1118.53;;;999.90;;
1785;SDS011;890;48.158;11.540;2023-06-22T02:46:44;1128.07;;;999.90;;
1785;SDS011;890;48.158;11.540;2023-06-22T02:49:10;1116.70;;;999.90;;
1785;SDS011;890;48.158;11.540;2023-06-22T02:51:38;1130.33;;;999.90;;
1785;SDS011;890;48.158;11.540;2023-06-22T02:54:05;1116.30;;;999.90;;
1785;SDS011;890;48.158;11.540;2023-06-22T02:56:31;1120.20;;;999.90;;
1785;SDS011;890;48.158;11.540;2023-06-22T02:58:56;1126.33;;;999.90;;
1785;SDS011;890;48.158;11.540;2023-06-22T03:01:28;1138.77;;;999.90;;
1785;SDS011;890;48.158;11.540;2023-06-22T03:03:55;1120.50;;;999.90;;
1785;SDS011;890;48.158;11.540;2023-06-22T03:06:21;1125.73;;;999.90;;
1785;SDS011;890;48.158;11.540;2023-06-22T03:08:56;1120.00;;;999.90;;
1785;SDS011;890;48.158;11.540;2023-06-22T03:11:24;1127.43;;;999.90;;
1785;SDS011;890;48.158;11.540;2023-06-22T03:13:49;1126.23;;;999.90;;
1785;SDS011;890;48.158;11.540;2023-06-22T03:16:17;1115.50;;;999.90;;
1785;SDS011;890;48.158;11.540;2023-06-22T03:18:42;1108.10;;;999.90;;
1785;SDS011;890;48.158;11.540;2023-06-22T03:21:08;1109.63;;;999.90;;
1785;SDS011;890;48.158;11.540;2023-06-22T03:23:34;1093.50;;;999.90;;
1785;SDS011;890;48.158;11.540;2023-06-22T03:25:59;1122.60;;;999.90;;
1785;SDS011;890;48.158;11.540;2023-06-22T03:28:25;1103.03;;;999.90;;
1785;SDS011;890;48.158;11.540;2023-06-22T03:30:50;1114.67;;;999.90;;
1785;SDS011;890;48.158;11.540;2023-06-22T03:33:16;1109.37;;;999.90;;
1785;SDS011;890;48.158;11.540;2023-06-22T03:35:41;1116.07;;;999.90;;
1785;SDS011;890;48.158;11.540;2023-06-22T03:38:07;1112.73;;;999.90;;
1785;SDS011;890;48.158;11.540;2023-06-22T03:40:33;1102.87;;;999.90;;
1785;SDS011;890;48.158;11.540;2023-06-22T03:42:58;1107.80;;;999.90;;
1785;SDS011;890;48.158;11.540;2023-06-22T03:45:24;1090.20;;;999.90;;
1785;SDS011;890;48.158;11.540;2023-06-22T03:47:49;1099.37;;;999.90;;
1785;SDS011;890;48.158;11.540;2023-06-22T03:50:15;1081.30;;;999.90;;
1785;SDS011;890;48.158;11.540;2023-06-22T03:52:41;1106.50;;;999.90;;
1785;SDS011;890;48.158;11.540;2023-06-22T03:55:06;1107.57;;;999.90;;
1785;SDS011;890;48.158;11.540;2023-06-22T03:57:32;1080.77;;;999.90;;
1785;SDS011;890;48.158;11.540;2023-06-22T03:59:58;1108.90;;;999.90;;
1785;SDS011;890;48.158;11.540;2023-06-22T04:02:24;1081.27;;;999.90;;
1785;SDS011;890;48.158;11.540;2023-06-22T04:04:50;1102.03;;;999.90;;
1785;SDS011;890;48.158;11.540;2023-06-22T04:07:16;1088.93;;;999.90;;
1785;SDS011;890;48.158;11.540;2023-06-22T04:09:42;1069.87;;;999.50;;
1785;SDS011;890;48.158;11.540;2023-06-22T04:12:08;1074.30;;;999.90;;
1785;SDS011;890;48.158;11.540;2023-06-22T04:14:34;1082.47;;;999.90;;
1785;SDS011;890;48.158;11.540;2023-06-22T04:17:00;1106.43;;;999.90;;
1785;SDS011;890;48.158;11.540;2023-06-22T04:19:26;1113.80;;;999.90;;
1785;SDS011;890;48.158;11.540;2023-06-22T04:21:51;1083.30;;;999.90;;
1785;SDS011;890;48.158;11.540;2023-06-22T04:24:17;1085.43;;;999.90;;
1785;SDS011;890;48.158;11.540;2023-06-22T04:26:43;1086.90;;;999.90;;
1785;SDS011;890;48.158;11.540;2023-06-22T04:29:10;1089.97;;;999.90;;
1785;SDS011;890;48.158;11.540;2023-06-22T04:31:36;1093.20;;;999.90;;
1785;SDS011;890;48.158;11.540;2023-06-22T04:34:03;1090.60;;;999.90;;
1785;SDS011;890;48.158;11.540;2023-06-22T04:36:36;1083.47;;;999.90;;
1785;SDS011;890;48.158;11.540;2023-06-22T04:39:09;1082.90;;;999.90;;
1785;SDS011;890;48.158;11.540;2023-06-22T04:41:39;1080.87;;;999.90;;
1785;SDS011;890;48.158;11.540;2023-06-22T04:44:08;1093.83;;;999.90;;
1785;SDS011;890;48.158;11.540;2023-06-22T04:46:39;1082.53;;;999.90;;
1785;SDS011;890;48.158;11.540;2023-06-22T04:49:05;1113.40;;;999.90;;
1785;SDS011;890;48.158;11.540;2023-06-22T04:51:36;1084.43;;;999.90;;
1785;SDS011;890;48.158;11.540;2023-06-22T04:54:03;1101.93;;;999.90;;
1785;SDS011;890;48.158;11.540;2023-06-22T04:56:30;1080.07;;;999.90;;
1785;SDS011;890;48.158;11.540;2023-06-22T04:58:56;1087.67;;;999.90;;
1785;SDS011;890;48.158;11.540;2023-06-22T05:01:22;1097.07;;;999.90;;
1785;SDS011;890;48.158;11.540;2023-06-22T05:03:49;1095.73;;;999.90;;
1785;SDS011;890;48.158;11.540;2023-06-22T05:06:15;1109.67;;;999.90;;
1785;SDS011;890;48.158;11.540;2023-06-22T05:08:40;1095.60;;;999.90;;
1785;SDS011;890;48.158;11.540;2023-06-22T05:11:06;1099.37;;;999.90;;
1785;SDS011;890;48.158;11.540;2023-06-22T05:13:32;1090.17;;;999.90;;
1785;SDS011;890;48.158;11.540;2023-06-22T05:15:57;1103.67;;;999.90;;
1785;SDS011;890;48.158;11.540;2023-06-22T05:18:30;1094.23;;;999.90;;
1785;SDS011;890;48.158;11.540;2023-06-22T05:20:56;1095.33;;;999.90;;
1785;SDS011;890;48.158;11.540;2023-06-22T05:23:22;1111.43;;;999.90;;
1785;SDS011;890;48.158;11.540;2023-06-22T05:25:48;1117.20;;;999.90;;
1785;SDS011;890;48.158;11.540;2023-06-22T05:28:13;1107.77;;;999.90;;
1785;SDS011;890;48.158;11.540;2023-06-22T05:30:39;1106.27;;;999.90;;
1785;SDS011;890;48.158;11.540;2023-06-22T05:33:06;1121.27;;;999.90;;
1785;SDS011;890;48.158;11.540;2023-06-22T05:35:31;1130.93;;;999.90;;
1785;SDS011;890;48.158;11.540;2023-06-22T05:37:57;1106.63;;;999.90;;
1785;SDS011;890;48.158;11.540;2023-06-22T05:40:23;1147.80;;;999.90;;
1785;SDS011;890;48.158;11.540;2023-06-22T05:42:48;1122.50;;;999.90;;
1785;SDS011;890;48.158;11.540;2023-06-22T05:45:14;1125.40;;;999.90;;
1785;SDS011;890;48.158;11.540;2023-06-22T05:47:39;1130.70;;;999.90;;
1785;SDS011;890;48.158;11.540;2023-06-22T05:50:05;1151.20;;;999.90;;
1785;SDS011;890;48.158;11.540;2023-06-22T05:52:33;1141.07;;;999.90;;
1785;SDS011;890;48.158;11.540;2023-06-22T05:54:59;1153.10;;;999.90;;
1785;SDS011;890;48.158;11.540;2023-06-22T05:57:24;1153.57;;;999.90;;
1785;SDS011;890;48.158;11.540;2023-06-22T05:59:50;1144.53;;;999.90;;
1785;SDS011;890;48.158;11.540;2023-06-22T06:02:16;1150.50;;;999.90;;
1785;SDS011;890;48.158;11.540;2023-06-22T06:04:42;1147.87;;;999.90;;
1785;SDS011;890;48.158;11.540;2023-06-22T06:07:07;1160.00;;;999.90;;
1785;SDS011;890;48.158;11.540;2023-06-22T06:09:33;1146.53;;;999.90;;
1785;SDS011;890;48.158;11.540;2023-06-22T06:11:59;1164.43;;;999.90;;
1785;SDS011;890;48.158;11.540;2023-06-22T06:14:27;1167.07;;;999.90;;
1785;SDS011;890;48.158;11.540;2023-06-22T06:16:53;1175.23;;;999.90;;
1785;SDS011;890;48.158;11.540;2023-06-22T06:19:19;1166.23;;;999.90;;
1785;SDS011;890;48.158;11.540;2023-06-22T06:21:44;1156.30;;;999.90;;
1785;SDS011;890;48.158;11.540;2023-06-22T06:24:11;1180.57;;;999.90;;
1785;SDS011;890;48.158;11.540;2023-06-22T06:26:37;1172.10;;;999.90;;
1785;SDS011;890;48.158;11.540;2023-06-22T06:29:02;1156.20;;;999.90;;
1785;SDS011;890;48.158;11.540;2023-06-22T06:31:28;1172.57;;;999.90;;
1785;SDS011;890;48.158;11.540;2023-06-22T06:33:54;1179.50;;;999.90;;
1785;SDS011;890;48.158;11.540;2023-06-22T06:36:20;1174.77;;;999.90;;
1785;SDS011;890;48.158;11.540;2023-06-22T06:38:46;1162.93;;;999.90;;
1785;SDS011;890;48.158;11.540;2023-06-22T06:41:13;1151.93;;;999.90;;
1785;SDS011;890;48.158;11.540;2023-06-22T06:43:40;1161.10;;;999.90;;
1785;SDS011;890;48.158;11.540;2023-06-22T06:46:05;1200.40;;;999.90;;
1785;SDS011;890;48.158;11.540;2023-06-22T06:48:31;1160.70;;;999.90;;
1785;SDS011;890;48.158;11.540;2023-06-22T06:50:56;1185.87;;;999.90;;
1785;SDS011;890;48.158;11.540;2023-06-22T06:53:22;1187.30;;;999.90;;
1785;SDS011;890;48.158;11.540;2023-06-22T06:55:47;1187.90;;;999.90;;
1785;SDS011;890;48.158;11.540;2023-06-22T06:58:13;1200.30;;;999.90;;
1785;SDS011;890;48.158;11.540;2023-06-22T07:00:39;1188.60;;;999.90;;
1785;SDS011;890;48.158;11.540;2023-06-22T07:03:05;1193.10;;;999.90;;
1785;SDS011;890;48.158;11.540;2023-06-22T07:05:32;1212.13;;;999.90;;
1785;SDS011;890;48.158;11.540;2023-06-22T07:07:57;1214.47;;;999.90;;
1785;SDS011;890;48.158;11.540;2023-06-22T07:10:23;1200.00;;;999.90;;
1785;SDS011;890;48.158;11.540;2023-06-22T07:12:48;1202.23;;;999.90;;
1785;SDS011;890;48.158;11.540;2023-06-22T07:15:14;1202.47;;;999.90;;
1785;SDS011;890;48.158;11.540;2023-06-22T07:17:39;1221.33;;;999.90;;
1785;SDS011;890;48.158;11.540;2023-06-22T07:20:06;1222.93;;;999.90;;
1785;SDS011;890;48.158;11.540;2023-06-22T07:22:37;1209.73;;;999.90;;
1785;SDS011;890;48.158;11.540;2023-06-22T07:25:03;1210.67;;;999.90;;
1785;SDS011;890;48.158;11.540;2023-06-22T07:27:34;1202.70;;;999.90;;
1785;SDS011;890;48.158;11.540;2023-06-22T07:30:02;1206.97;;;999.90;;
1785;SDS011;890;48.158;11.540;2023-06-22T07:32:28;1215.87;;;999.90;;
1785;SDS011;890;48.158;11.540;2023-06-22T07:34:54;1222.10;;;999.90;;
1785;SDS011;890;48.158;11.540;2023-06-22T07:37:20;1203.60;;;999.90;;
1785;SDS011;890;48.158;11.540;2023-06-22T07:39:46;1222.30;;;999.90;;
1785;SDS011;890;48.158;11.540;2023-06-22T07:42:11;1213.97;;;999.90;;
1785;SDS011;890;48.158;11.540;2023-06-22T07:44:37;1229.87;;;999.90;;
1785;SDS011;890;48.158;11.540;2023-06-22T07:47:03;1232.87;;;999.90;;
1785;SDS011;890;48.158;11.540;2023-06-22T07:49:28;1242.37;;;999.90;;
1785;SDS011;890;48.158;11.540;2023-06-22T07:51:54;1232.53;;;999.90;;
1785;SDS011;890;48.158;11.540;2023-06-22T07:54:20;1231.63;;;999.90;;
1785;SDS011;890;48.158;11.540;2023-06-22T07:56:46;1233.80;;;999.90;;
1785;SDS011;890;48.158;11.540;2023-06-22T07:59:11;1238.87;;;999.90;;
1785;SDS011;890;48.158;11.540;2023-06-22T08:01:37;1225.90;;;999.90;;
1785;SDS011;890;48.158;11.540;2023-06-22T08:04:02;1244.30;;;999.90;;
1785;SDS011;890;48.158;11.540;2023-06-22T08:06:29;1239.20;;;999.90;;
1785;SDS011;890;48.158;11.540;2023-06-22T08:08:55;1228.30;;;999.90;;
1785;SDS011;890;48.158;11.540;2023-06-22T08:11:22;1227.90;;;999.90;;
1785;SDS011;890;48.158;11.540;2023-06-22T08:13:50;1235.10;;;999.90;;
1785;SDS011;890;48.158;11.540;2023-06-22T08:16:15;1218.00;;;999.90;;
1785;SDS011;890;48.158;11.540;2023-06-22T08:18:41;1234.27;;;999.90;;
1785;SDS011;890;48.158;11.540;2023-06-22T08:21:06;1233.87;;;999.90;;
1785;SDS011;890;48.158;11.540;2023-06-22T08:23:32;1243.87;;;999.90;;
1785;SDS011;890;48.158;11.540;2023-06-22T08:25:57;1234.07;;;999.90;;
1785;SDS011;890;48.158;11.540;2023-06-22T08:28:23;1249.60;;;999.90;;
1785;SDS011;890;48.158;11.540;2023-06-22T08:30:49;1240.70;;;999.90;;
1785;SDS011;890;48.158;11.540;2023-06-22T08:33:14;1240.70;;;999.90;;
1785;SDS011;890;48.158;11.540;2023-06-22T08:35:40;1253.47;;;999.90;;
1785;SDS011;890;48.158;11.540;2023-06-22T08:38:07;1242.03;;;999.90;;
1785;SDS011;890;48.158;11.540;2023-06-22T08:40:33;1233.03;;;999.90;;
1785;SDS011;890;48.158;11.540;2023-06-22T08:42:58;1250.63;;;999.90;;
1785;SDS011;890;48.158;11.540;2023-06-22T08:45:24;1241.30;;;999.90;;
1785;SDS011;890;48.158;11.540;2023-06-22T08:47:49;1257.37;;;999.90;;
1785;SDS011;890;48.158;11.540;2023-06-22T08:50:15;1245.53;;;999.90;;
1785;SDS011;890;48.158;11.540;2023-06-22T08:52:40;1245.30;;;999.90;;
1785;SDS011;890;48.158;11.540;2023-06-22T08:55:06;1225.20;;;999.90;;
1785;SDS011;890;48.158;11.540;2023-06-22T08:57:32;1233.27;;;999.90;;
1785;SDS011;890;48.158;11.540;2023-06-22T08:59:58;1234.77;;;999.90;;
1785;SDS011;890;48.158;11.540;2023-06-22T09:02:24;1243.13;;;999.90;;
1785;SDS011;890;48.158;11.540;2023-06-22T09:04:50;1242.83;;;999.90;;
1785;SDS011;890;48.158;11.540;2023-06-22T09:07:21;1239.47;;;999.90;;
1785;SDS011;890;48.158;11.540;2023-06-22T09:09:48;1232.53;;;999.90;;
1785;SDS011;890;48.158;11.540;2023-06-22T09:12:14;1234.97;;;999.90;;
1785;SDS011;890;48.158;11.540;2023-06-22T09:14:39;1245.03;;;999.90;;
1785;SDS011;890;48.158;11.540;2023-06-22T09:17:05;1241.27;;;999.90;;
1785;SDS011;890;48.158;11.540;2023-06-22T09:19:31;1254.50;;;999.90;;
1785;SDS011;890;48.158;11.540;2023-06-22T09:21:56;1246.20;;;999.90;;
1785;SDS011;890;48.158;11.540;2023-06-22T09:24:22;1237.30;;;999.90;;
1785;SDS011;890;48.158;11.540;2023-06-22T09:26:48;1240.33;;;999.90;;
1785;SDS011;890;48.158;11.540;2023-06-22T09:29:13;1245.50;;;999.90;;
1785;SDS011;890;48.158;11.540;2023-06-22T09:31:39;1248.57;;;999.90;;
1785;SDS011;890;48.158;11.540;2023-06-22T09:34:04;1249.30;;;999.90;;
1785;SDS011;890;48.158;11.540;2023-06-22T09:36:30;1245.93;;;999.90;;
1785;SDS011;890;48.158;11.540;2023-06-22T09:38:55;1274.23;;;999.90;;
1785;SDS011;890;48.158;11.540;2023-06-22T09:41:23;1263.00;;;999.90;;
1785;SDS011;890;48.158;11.540;2023-06-22T09:43:49;1266.43;;;999.90;;
1785;SDS011;890;48.158;11.540;2023-06-22T09:46:15;1261.33;;;999.90;;
1785;SDS011;890;48.158;11.540;2023-06-22T09:48:41;1270.83;;;999.90;;
1785;SDS011;890;48.158;11.540;2023-06-22T09:51:07;1235.03;;;999.90;;
1785;SDS011;890;48.158;11.540;2023-06-22T09:53:33;1236.00;;;999.90;;
1785;SDS011;890;48.158;11.540;2023-06-22T09:55:59;1256.90;;;999.90;;
1785;SDS011;890;48.158;11.540;2023-06-22T09:58:26;1269.00;;;999.90;;
1785;SDS011;890;48.158;11.540;2023-06-22T10:00:52;1269.20;;;999.90;;
1785;SDS011;890;48.158;11.540;2023-06-22T10:03:19;1268.67;;;999.90;;
1785;SDS011;890;48.158;11.540;2023-06-22T10:05:45;1269.60;;;999.90;;
1785;SDS011;890;48.158;11.540;2023-06-22T10:08:11;1273.03;;;999.90;;
1785;SDS011;890;48.158;11.540;2023-06-22T10:10:36;1235.23;;;999.90;;
1785;SDS011;890;48.158;11.540;2023-06-22T10:13:04;1119.60;;;999.90;;
1785;SDS011;890;48.158;11.540;2023-06-22T10:15:35;1155.10;;;999.90;;
1785;SDS011;890;48.158;11.540;2023-06-22T10:18:00;906.97;;;853.27;;
1785;SDS011;890;48.158;11.540;2023-06-22T10:20:26;789.93;;;740.03;;
1785;SDS011;890;48.158;11.540;2023-06-22T10:22:52;810.03;;;759.37;;
1785;SDS011;890;48.158;11.540;2023-06-22T10:25:18;812.53;;;761.93;;
1785;SDS011;890;48.158;11.540;2023-06-22T10:27:44;825.83;;;775.60;;
1785;SDS011;890;48.158;11.540;2023-06-22T10:30:10;863.60;;;811.13;;
1785;SDS011;890;48.158;11.540;2023-06-22T10:32:40;883.87;;;829.97;;
1785;SDS011;890;48.158;11.540;2023-06-22T10:35:07;883.33;;;830.33;;
1785;SDS011;890;48.158;11.540;2023-06-22T10:37:35;901.63;;;848.30;;
1785;SDS011;890;48.158;11.540;2023-06-22T10:40:01;896.87;;;843.37;;
1785;SDS011;890;48.158;11.540;2023-06-22T10:42:29;908.70;;;852.90;;
1785;SDS011;890;48.158;11.540;2023-06-22T10:44:54;929.33;;;873.50;;
1785;SDS011;890;48.158;11.540;2023-06-22T10:47:20;909.03;;;855.97;;
1785;SDS011;890;48.158;11.540;2023-06-22T10:49:45;927.57;;;872.37;;
1785;SDS011;890;48.158;11.540;2023-06-22T10:52:11;942.43;;;887.30;;
1785;SDS011;890;48.158;11.540;2023-06-22T10:54:37;961.03;;;905.50;;
1785;SDS011;890;48.158;11.540;2023-06-22T10:57:03;956.70;;;901.20;;
1785;SDS011;890;48.158;11.540;2023-06-22T10:59:29;962.17;;;906.37;;
1785;SDS011;890;48.158;11.540;2023-06-22T11:01:55;986.97;;;929.67;;
1785;SDS011;890;48.158;11.540;2023-06-22T11:04:21;966.23;;;910.47;;
1785;SDS011;890;48.158;11.540;2023-06-22T11:06:47;948.77;;;893.80;;
1785;SDS011;890;48.158;11.540;2023-06-22T11:09:13;922.37;;;868.60;;
1785;SDS011;890;48.158;11.540;2023-06-22T11:11:44;909.67;;;856.40;;
1785;SDS011;890;48.158;11.540;2023-06-22T11:14:09;877.17;;;824.83;;
1785;SDS011;890;48.158;11.540;2023-06-22T11:16:35;858.87;;;807.30;;
1785;SDS011;890;48.158;11.540;2023-06-22T11:19:01;880.87;;;828.70;;
1785;SDS011;890;48.158;11.540;2023-06-22T11:21:28;939.80;;;884.87;;
1785;SDS011;890;48.158;11.540;2023-06-22T11:23:53;917.27;;;863.00;;
1785;SDS011;890;48.158;11.540;2023-06-22T11:26:19;973.17;;;916.47;;
1785;SDS011;890;48.158;11.540;2023-06-22T11:28:46;958.57;;;902.30;;
1785;SDS011;890;48.158;11.540;2023-06-22T11:31:12;968.07;;;912.27;;
1785;SDS011;890;48.158;11.540;2023-06-22T11:33:37;943.70;;;888.23;;
1785;SDS011;890;48.158;11.540;2023-06-22T11:36:03;897.33;;;842.97;;
1785;SDS011;890;48.158;11.540;2023-06-22T11:38:29;901.43;;;847.60;;
1785;SDS011;890;48.158;11.540;2023-06-22T11:40:55;928.50;;;873.80;;
1785;SDS011;890;48.158;11.540;2023-06-22T11:43:22;906.47;;;852.50;;
1785;SDS011;890;48.158;11.540;2023-06-22T11:45:48;936.03;;;880.53;;
1785;SDS011;890;48.158;11.540;2023-06-22T11:48:14;956.27;;;900.90;;
1785;SDS011;890;48.158;11.540;2023-06-22T11:50:39;949.47;;;893.60;;
1785;SDS011;890;48.158;11.540;2023-06-22T11:53:05;969.43;;;911.63;;
1785;SDS011;890;48.158;11.540;2023-06-22T11:55:30;982.23;;;925.33;;
1785;SDS011;890;48.158;11.540;2023-06-22T11:57:56;990.70;;;931.33;;
1785;SDS011;890;48.158;11.540;2023-06-22T12:00:25;985.63;;;928.40;;
1785;SDS011;890;48.158;11.540;2023-06-22T12:02:51;984.43;;;925.23;;
1785;SDS011;890;48.158;11.540;2023-06-22T12:05:20;994.43;;;936.30;;
1785;SDS011;890;48.158;11.540;2023-06-22T12:07:46;983.43;;;926.33;;
1785;SDS011;890;48.158;11.540;2023-06-22T12:10:12;988.13;;;931.03;;
1785;SDS011;890;48.158;11.540;2023-06-22T12:12:37;995.27;;;938.07;;
1785;SDS011;890;48.158;11.540;2023-06-22T12:15:03;974.47;;;917.90;;
1785;SDS011;890;48.158;11.540;2023-06-22T12:17:29;994.23;;;936.73;;
1785;SDS011;890;48.158;11.540;2023-06-22T12:19:55;988.63;;;931.70;;
1785;SDS011;890;48.158;11.540;2023-06-22T12:22:21;1014.60;;;956.67;;
1785;SDS011;890;48.158;11.540;2023-06-22T12:24:46;994.13;;;936.43;;
1785;SDS011;890;48.158;11.540;2023-06-22T12:27:12;987.43;;;930.27;;
1785;SDS011;890;48.158;11.540;2023-06-22T12:29:37;1011.23;;;952.17;;
1785;SDS011;890;48.158;11.540;2023-06-22T12:32:03;1001.43;;;943.87;;
1785;SDS011;890;48.158;11.540;2023-06-22T12:34:29;981.90;;;925.40;;
1785;SDS011;890;48.158;11.540;2023-06-22T12:36:55;954.33;;;898.53;;
1785;SDS011;890;48.158;11.540;2023-06-22T12:39:20;939.60;;;884.00;;
1785;SDS011;890;48.158;11.540;2023-06-22T12:41:46;947.57;;;891.77;;
1785;SDS011;890;48.158;11.540;2023-06-22T12:44:12;928.63;;;872.87;;
1785;SDS011;890;48.158;11.540;2023-06-22T12:46:37;922.30;;;867.90;;
1785;SDS011;890;48.158;11.540;2023-06-22T12:49:03;986.07;;;929.20;;
1785;SDS011;890;48.158;11.540;2023-06-22T12:51:29;1011.73;;;952.83;;
1785;SDS011;890;48.158;11.540;2023-06-22T12:53:55;1231.27;;;999.90;;
1785;SDS011;890;48.158;11.540;2023-06-22T12:56:21;1252.50;;;999.90;;
1785;SDS011;890;48.158;11.540;2023-06-22T12:58:46;1203.03;;;999.90;;
1785;SDS011;890;48.158;11.540;2023-06-22T13:01:12;1204.03;;;999.90;;
1785;SDS011;890;48.158;11.540;2023-06-22T13:03:38;1207.23;;;999.90;;
1785;SDS011;890;48.158;11.540;2023-06-22T13:06:03;1202.93;;;999.90;;
1785;SDS011;890;48.158;11.540;2023-06-22T13:08:29;1263.37;;;999.90;;
1785;SDS011;890;48.158;11.540;2023-06-22T13:10:55;1316.07;;;999.90;;
1785;SDS011;890;48.158;11.540;2023-06-22T13:13:23;1268.67;;;999.90;;
1785;SDS011;890;48.158;11.540;2023-06-22T13:15:51;1272.90;;;999.90;;
1785;SDS011;890;48.158;11.540;2023-06-22T13:18:17;1298.50;;;999.90;;
1785;SDS011;890;48.158;11.540;2023-06-22T13:20:43;1220.13;;;999.90;;
1785;SDS011;890;48.158;11.540;2023-06-22T13:23:10;1317.27;;;999.90;;
1785;SDS011;890;48.158;11.540;2023-06-22T13:25:36;1319.83;;;999.90;;
1785;SDS011;890;48.158;11.540;2023-06-22T13:28:01;1336.10;;;999.90;;
1785;SDS011;890;48.158;11.540;2023-06-22T13:30:27;1336.13;;;999.90;;
1785;SDS011;890;48.158;11.540;2023-06-22T13:32:53;1328.63;;;999.90;;
1785;SDS011;890;48.158;11.540;2023-06-22T13:35:19;1333.87;;;999.90;;
1785;SDS011;890;48.158;11.540;2023-06-22T13:37:44;1343.00;;;999.90;;
1785;SDS011;890;48.158;11.540;2023-06-22T13:40:10;1333.47;;;999.90;;
1785;SDS011;890;48.158;11.540;2023-06-22T13:42:35;1330.47;;;999.90;;
1785;SDS011;890;48.158;11.540;2023-06-22T13:45:01;1325.10;;;999.90;;
1785;SDS011;890;48.158;11.540;2023-06-22T13:47:27;1336.77;;;999.90;;
1785;SDS011;890;48.158;11.540;2023-06-22T13:49:54;1345.10;;;999.90;;
1785;SDS011;890;48.158;11.540;2023-06-22T13:52:19;1355.77;;;999.90;;
1785;SDS011;890;48.158;11.540;2023-06-22T13:54:45;1337.03;;;999.90;;
1785;SDS011;890;48.158;11.540;2023-06-22T13:57:10;1361.97;;;999.90;;
1785;SDS011;890;48.158;11.540;2023-06-22T13:59:36;1363.17;;;999.90;;
1785;SDS011;890;48.158;11.540;2023-06-22T14:02:01;1355.00;;;999.90;;
1785;SDS011;890;48.158;11.540;2023-06-22T14:04:27;1332.97;;;999.90;;
1785;SDS011;890;48.158;11.540;2023-06-22T14:06:53;1346.40;;;999.90;;
1785;SDS011;890;48.158;11.540;2023-06-22T14:09:20;1360.60;;;999.90;;
1785;SDS011;890;48.158;11.540;2023-06-22T14:11:46;1355.20;;;999.90;;
1785;SDS011;890;48.158;11.540;2023-06-22T14:14:12;1342.27;;;999.90;;